Time;durP1;ratioP1;P1;durP2;ratioP2;P2;SDS_P1;SDS_P2;PMS_P1;PMS_P2;Temp;Humidity;BMP_temperature;BMP_pressure;BME280_temperature;BME280_humidity;BME280_pressure;Samples;Min_cycle;Max_cycle;Signal;HPM_P1;HPM_P2
2020/12/09 00:02:50;;;;;;;13.43;9.30;;;;;;;3.90;84.59;102127.84;6214195;28;20228;-79
2020/12/09 00:05:54;;;;;;;10.23;7.80;;;;;;;4.12;82.85;102122.13;6207830;28;20264;-78
2020/12/09 00:08:58;;;;;;;13.53;8.57;;;;;;;4.18;82.99;102117.03;6212994;28;21436;-78
2020/12/09 00:12:01;;;;;;;15.47;8.53;;;;;;;4.05;84.34;102104.81;6215124;28;20205;-79
2020/12/09 00:15:07;;;;;;;18.30;8.87;;;;;;;3.95;84.56;102115.63;6206440;28;20512;-78
2020/12/09 00:18:14;;;;;;;17.70;9.23;;;;;;;3.95;84.38;102098.56;6218312;28;20295;-77
2020/12/09 00:21:20;;;;;;;14.23;8.57;;;;;;;4.04;83.25;102103.97;6210234;28;20667;-78
2020/12/09 00:24:23;;;;;;;14.13;9.03;;;;;;;3.94;84.22;102107.66;6218723;28;20226;-78
2020/12/09 00:27:26;;;;;;;16.17;8.50;;;;;;;3.93;85.00;102120.31;6217785;28;20235;-79
2020/12/09 00:30:31;;;;;;;16.57;8.30;;;;;;;4.01;83.84;102108.78;6218835;28;20199;-79
2020/12/09 00:33:34;;;;;;;13.00;8.73;;;;;;;3.80;84.78;102107.09;6199869;28;20207;-78
2020/12/09 00:36:39;;;;;;;13.37;9.23;;;;;;;4.11;82.93;102123.16;6215145;28;20206;-77
2020/12/09 00:39:42;;;;;;;13.90;9.10;;;;;;;4.07;82.31;102119.88;6200304;28;20211;-77
2020/12/09 00:42:45;;;;;;;12.57;8.50;;;;;;;4.01;83.15;102130.38;6199706;28;20230;-77
2020/12/09 00:45:50;;;;;;;13.10;8.87;;;;;;;4.27;82.31;102126.94;6214560;28;20586;-77
2020/12/09 00:48:54;;;;;;;14.23;8.73;;;;;;;4.00;82.55;102096.28;6215720;28;20259;-78
2020/12/09 00:52:00;;;;;;;12.73;8.87;;;;;;;4.01;82.48;102124.97;6198711;28;20274;-79
2020/12/09 00:55:05;;;;;;;14.93;9.00;;;;;;;4.14;82.13;102115.59;6204319;28;20515;-78
2020/12/09 00:58:09;;;;;;;14.90;9.17;;;;;;;4.12;81.44;102084.31;6194716;28;20268;-77
2020/12/09 01:01:14;;;;;;;14.43;9.17;;;;;;;4.04;83.09;102120.16;6200645;28;20677;-78
2020/12/09 01:04:23;;;;;;;14.30;8.83;;;;;;;4.07;83.24;102129.81;6189871;28;20691;-78
2020/12/09 01:07:28;;;;;;;11.40;8.03;;;;;;;3.95;82.68;102130.97;6218373;28;20274;-78
2020/12/09 01:10:32;;;;;;;14.03;9.27;;;;;;;4.23;81.27;102135.50;6213252;28;20658;-78
2020/12/09 01:13:35;;;;;;;15.27;9.20;;;;;;;4.39;81.28;102141.16;6217213;28;20211;-78
2020/12/09 01:16:39;;;;;;;19.30;9.83;;;;;;;4.38;80.87;102145.72;6217716;28;20199;-78
2020/12/09 01:19:42;;;;;;;17.03;9.00;;;;;;;4.37;81.39;102148.53;6217446;28;20543;-78
2020/12/09 01:22:46;;;;;;;13.47;8.80;;;;;;;4.30;81.64;102147.41;6218130;28;20401;-78
2020/12/09 01:25:50;;;;;;;12.87;8.17;;;;;;;4.37;80.56;102132.31;6218083;28;20212;-76
2020/12/09 01:28:54;;;;;;;13.47;8.50;;;;;;;4.47;80.81;102149.38;6217971;28;20197;-79
2020/12/09 01:31:59;;;;;;;14.00;9.47;;;;;;;4.44;80.63;102142.41;6214467;28;20540;-79
2020/12/09 01:35:02;;;;;;;12.13;8.27;;;;;;;4.38;81.09;102144.84;6217475;28;20200;-79
2020/12/09 01:38:09;;;;;;;15.80;8.57;;;;;;;4.43;80.48;102137.16;6212482;28;20202;-76
2020/12/09 01:41:14;;;;;;;11.23;7.53;;;;;;;4.32;80.32;102134.63;6205943;28;20202;-78
2020/12/09 01:44:19;;;;;;;13.07;8.10;;;;;;;4.53;79.76;102132.56;6221090;28;20223;-79
2020/12/09 01:47:23;;;;;;;12.57;7.90;;;;;;;4.42;80.51;102130.03;6219559;28;20218;-77
2020/12/09 01:50:26;;;;;;;13.00;8.40;;;;;;;4.38;80.67;102128.63;6221900;28;20217;-77
2020/12/09 01:53:30;;;;;;;14.33;8.60;;;;;;;4.52;80.78;102133.56;6222370;28;20246;-78
2020/12/09 01:56:33;;;;;;;11.43;7.17;;;;;;;4.24;80.88;102112.88;6219317;28;20274;-78
2020/12/09 01:59:38;;;;;;;12.53;8.30;;;;;;;4.45;79.97;102108.13;6214989;28;20225;-77
2020/12/09 02:02:42;;;;;;;12.07;7.80;;;;;;;4.38;80.59;102125.94;6221984;28;20341;-80
2020/12/09 02:05:49;;;;;;;10.10;7.90;;;;;;;4.31;81.69;102136.47;6203879;28;20378;-78
2020/12/09 02:08:52;;;;;;;13.13;7.43;;;;;;;4.22;82.27;102117.56;6222385;28;20317;-76
2020/12/09 02:11:57;;;;;;;14.53;7.53;;;;;;;4.51;80.83;102123.78;6221592;28;20201;-79
2020/12/09 02:15:00;;;;;;;10.13;7.40;;;;;;;4.51;80.92;102131.03;6220898;28;20256;-80
2020/12/09 02:18:07;;;;;;;9.63;7.40;;;;;;;4.57;80.51;102128.56;6221651;28;20215;-77
2020/12/09 02:21:12;;;;;;;8.97;7.17;;;;;;;4.62;79.95;102137.13;6222508;28;20602;-78
2020/12/09 02:24:16;;;;;;;10.80;7.63;;;;;;;4.47;80.62;102121.50;6221808;28;20213;-78
2020/12/09 02:27:20;;;;;;;9.77;7.40;;;;;;;4.28;81.23;102119.69;6215980;28;20254;-79
2020/12/09 02:30:23;;;;;;;14.70;7.97;;;;;;;4.42;81.23;102140.84;6222647;28;20205;-78
2020/12/09 02:33:27;;;;;;;14.13;7.80;;;;;;;4.39;80.05;102131.19;6212631;28;20612;-78
2020/12/09 02:36:31;;;;;;;11.67;7.70;;;;;;;4.52;80.19;102155.19;6219962;28;20203;-79
2020/12/09 02:39:37;;;;;;;13.07;8.20;;;;;;;4.47;80.48;102149.38;6221178;28;20191;-77
2020/12/09 02:42:40;;;;;;;12.20;8.17;;;;;;;4.44;80.63;102144.28;6218560;28;20222;-78
2020/12/09 02:45:44;;;;;;;13.77;8.77;;;;;;;4.21;82.62;102138.31;6218363;28;20222;-81
2020/12/09 02:48:47;;;;;;;13.60;8.30;;;;;;;4.44;81.78;102147.00;6201961;28;20586;-79
2020/12/09 02:51:51;;;;;;;11.97;8.27;;;;;;;4.28;81.69;102138.63;6219862;28;20222;-77
2020/12/09 02:54:55;;;;;;;19.57;8.90;;;;;;;4.40;81.92;102142.84;6201054;28;20238;-77
2020/12/09 02:58:00;;;;;;;9.57;8.03;;;;;;;4.39;81.98;102146.56;6200216;28;20187;-78
2020/12/09 03:01:04;;;;;;;13.57;8.70;;;;;;;4.27;82.94;102140.47;6202999;28;20230;-79
2020/12/09 03:04:10;;;;;;;18.43;9.40;;;;;;;4.15;83.19;102159.66;6217125;28;20195;-79
2020/12/09 03:07:14;;;;;;;13.83;9.00;;;;;;;4.28;82.10;102144.03;6219300;28;20211;-78
2020/12/09 03:10:20;;;;;;;15.20;9.40;;;;;;;4.18;83.25;102145.88;6220386;28;20199;-78
2020/12/09 03:13:23;;;;;;;18.33;9.47;;;;;;;4.40;81.80;102148.25;6212044;28;20216;-78
2020/12/09 03:16:27;;;;;;;14.30;9.47;;;;;;;4.26;83.11;102146.03;6218075;28;20194;-77
2020/12/09 03:19:30;;;;;;;17.27;9.40;;;;;;;4.28;82.83;102147.56;6220031;28;20214;-78
2020/12/09 03:22:33;;;;;;;12.43;8.90;;;;;;;4.05;83.78;102137.22;6216677;28;20205;-78
2020/12/09 03:25:38;;;;;;;13.50;9.53;;;;;;;4.38;82.21;102151.13;6218622;28;20430;-77
2020/12/09 03:28:41;;;;;;;14.13;9.10;;;;;;;4.42;81.71;102146.25;6217899;28;20264;-76
2020/12/09 03:31:44;;;;;;;20.43;9.70;;;;;;;4.48;81.83;102152.94;6208745;28;20197;-78
2020/12/09 03:34:48;;;;;;;14.20;9.60;;;;;;;4.37;83.42;102153.94;6220454;28;20221;-78
2020/12/09 03:37:51;;;;;;;13.43;8.60;;;;;;;4.37;82.41;102153.94;6219854;28;20277;-79
2020/12/09 03:40:55;;;;;;;14.97;8.87;;;;;;;4.25;83.25;102144.31;6219472;28;20231;-78
2020/12/09 03:43:59;;;;;;;12.20;8.30;;;;;;;4.35;82.71;102139.72;6217427;28;20201;-78
2020/12/09 03:47:05;;;;;;;14.97;8.70;;;;;;;4.48;82.30;102151.09;6213155;28;20233;-78
2020/12/09 03:50:10;;;;;;;12.93;8.57;;;;;;;4.11;83.98;102120.44;6210854;28;20220;-78
2020/12/09 03:53:14;;;;;;;11.90;8.50;;;;;;;4.29;82.92;102129.50;6201926;28;20241;-77
2020/12/09 03:56:19;;;;;;;16.90;7.87;;;;;;;4.32;82.88;102150.81;6217363;28;20679;-78
2020/12/09 03:59:22;;;;;;;12.63;7.80;;;;;;;4.50;82.50;102159.03;6218782;28;20659;-78
2020/12/09 04:02:25;;;;;;;13.67;7.47;;;;;;;4.41;82.62;102160.78;6218889;28;20279;-78
2020/12/09 04:05:28;;;;;;;9.20;7.57;;;;;;;4.34;83.81;102148.81;6217680;28;20627;-77
2020/12/09 04:08:31;;;;;;;13.63;7.17;;;;;;;4.12;84.93;102165.34;6218991;28;20194;-79
2020/12/09 04:11:38;;;;;;;11.40;7.03;;;;;;;4.44;82.88;102157.78;6219035;28;20446;-78
2020/12/09 04:14:41;;;;;;;9.67;6.93;;;;;;;4.09;83.77;102122.41;6219230;28;20237;-78
2020/12/09 04:17:45;;;;;;;11.17;7.50;;;;;;;4.16;84.77;102172.19;6218854;28;20192;-78
2020/12/09 04:20:48;;;;;;;7.37;6.50;;;;;;;4.31;84.03;102165.34;6215299;28;20200;-76
2020/12/09 04:23:52;;;;;;;8.30;7.00;;;;;;;4.38;83.48;102171.88;6218876;28;20340;-79
2020/12/09 04:26:56;;;;;;;8.27;6.43;;;;;;;4.20;84.42;102162.78;6217419;28;20237;-78
2020/12/09 04:30:00;;;;;;;8.47;6.93;;;;;;;4.21;84.40;102186.13;6202170;28;20269;-77
2020/12/09 04:33:05;;;;;;;8.97;6.87;;;;;;;3.97;85.39;102183.84;6215236;28;20246;-78
2020/12/09 04:36:10;;;;;;;7.50;6.80;;;;;;;4.23;84.47;102181.41;6218807;28;20288;-78
2020/12/09 04:39:13;;;;;;;8.43;6.43;;;;;;;4.35;83.80;102193.78;6219324;28;20629;-78
2020/12/09 04:42:21;;;;;;;8.80;7.13;;;;;;;4.32;83.77;102185.94;6219382;28;20203;-78
2020/12/09 04:45:25;;;;;;;8.97;6.87;;;;;;;4.16;85.45;102177.59;6211949;28;20202;-78
2020/12/09 04:48:29;;;;;;;7.73;6.33;;;;;;;4.24;84.95;102191.22;6218430;28;20650;-78
2020/12/09 04:51:58;;;;;;;7.00;6.30;;;;;;;4.17;84.36;102196.34;6213229;28;20306;-79
2020/12/09 04:55:07;;;;;;;12.80;6.53;;;;;;;4.01;86.52;102192.50;6198789;28;20708;-77
2020/12/09 04:58:15;;;;;;;7.63;6.00;;;;;;;4.16;84.97;102188.41;6216191;28;20193;-80
2020/12/09 05:01:18;;;;;;;6.70;6.03;;;;;;;4.11;85.97;102190.69;6211593;28;20205;-80
2020/12/09 05:04:25;;;;;;;7.40;6.27;;;;;;;4.36;84.25;102184.69;6216304;28;20258;-78
2020/12/09 05:07:35;;;;;;;5.73;5.30;;;;;;;4.24;83.62;102158.78;6212580;28;20283;-78
2020/12/09 05:10:46;;;;;;;6.43;5.83;;;;;;;4.26;84.96;102197.34;6217664;28;20198;-77
2020/12/09 05:13:53;;;;;;;6.67;6.03;;;;;;;4.32;84.47;102204.88;6217800;28;20204;-77
2020/12/09 05:16:58;;;;;;;6.43;5.83;;;;;;;3.97;85.63;102201.88;6216779;28;20337;-78
2020/12/09 05:20:04;;;;;;;6.20;5.53;;;;;;;4.05;86.09;102210.13;6197131;28;20614;-78
2020/12/09 05:23:10;;;;;;;9.33;6.53;;;;;;;4.08;85.70;102201.75;6218302;28;20226;-79
2020/12/09 05:26:25;;;;;;;6.90;6.20;;;;;;;4.09;85.86;102203.44;6216858;28;20681;-78
2020/12/09 05:29:30;;;;;;;10.87;6.03;;;;;;;4.27;85.27;102209.84;6217739;28;20559;-77
2020/12/09 05:32:52;;;;;;;6.83;5.97;;;;;;;4.29;85.03;102215.94;6217578;28;20309;-79
2020/12/09 05:35:57;;;;;;;6.43;5.67;;;;;;;4.32;84.37;102204.88;6217301;28;20217;-79
2020/12/09 05:39:05;;;;;;;8.10;5.87;;;;;;;4.43;84.20;102212.84;6213555;28;20613;-78
2020/12/09 05:42:14;;;;;;;6.23;5.63;;;;;;;3.96;85.26;102165.94;6217227;28;20189;-79
2020/12/09 05:45:23;;;;;;;8.53;6.40;;;;;;;4.18;85.86;102202.63;6216788;28;20639;-79
2020/12/09 05:48:26;;;;;;;9.07;6.10;;;;;;;3.99;86.90;102186.41;6216720;28;20688;-78
2020/12/09 05:51:30;;;;;;;6.97;6.27;;;;;;;4.31;85.44;102211.28;6216409;28;20625;-78
2020/12/09 05:54:35;;;;;;;8.17;6.33;;;;;;;4.30;85.90;102201.47;6221016;28;20288;-79
2020/12/09 05:57:38;;;;;;;7.23;5.70;;;;;;;4.20;86.15;102206.88;6215621;28;20331;-78
2020/12/09 06:00:45;;;;;;;6.00;5.50;;;;;;;4.34;85.00;102205.56;6216216;28;20239;-78
2020/12/09 06:03:50;;;;;;;6.57;5.97;;;;;;;4.28;85.86;102215.13;6218200;28;20183;-78
2020/12/09 06:06:57;;;;;;;9.00;6.73;;;;;;;4.20;86.67;102206.03;6216987;28;20212;-78
2020/12/09 06:10:06;;;;;;;7.27;5.87;;;;;;;4.05;86.52;102191.25;6199931;28;20196;-78
2020/12/09 06:13:10;;;;;;;9.00;6.30;;;;;;;4.20;86.03;102200.63;6216553;28;20203;-79
2020/12/09 06:16:17;;;;;;;7.13;6.27;;;;;;;4.23;85.79;102222.81;6216522;28;20656;-77
2020/12/09 06:19:20;;;;;;;8.33;6.23;;;;;;;4.19;86.46;102237.56;6214169;28;20243;-77
2020/12/09 06:22:24;;;;;;;10.20;6.13;;;;;;;4.28;86.55;102230.47;6216246;28;20197;-78
2020/12/09 06:25:27;;;;;;;10.07;7.00;;;;;;;4.08;87.59;102234.19;6214714;28;20198;-77
2020/12/09 06:28:32;;;;;;;9.93;6.70;;;;;;;3.97;88.16;102237.00;6218758;28;22280;-79
2020/12/09 06:31:37;;;;;;;10.00;6.30;;;;;;;4.24;86.65;102235.31;6220312;28;20196;-79
2020/12/09 06:34:40;;;;;;;8.87;6.20;;;;;;;4.33;86.01;102233.59;6228199;28;20210;-80
2020/12/09 06:38:14;;;;;;;7.53;5.87;;;;;;;4.33;85.44;102233.59;6222265;28;20681;-79
2020/12/09 06:41:17;;;;;;;7.03;5.93;;;;;;;4.10;86.95;102232.19;6219150;28;20560;-78
2020/12/09 06:44:21;;;;;;;8.07;6.07;;;;;;;4.08;86.92;102209.88;6210618;28;20211;-79
2020/12/09 06:47:25;;;;;;;8.33;6.23;;;;;;;4.21;86.38;102248.25;6220627;28;20281;-79
2020/12/09 06:50:29;;;;;;;10.33;6.03;;;;;;;3.99;85.88;102202.59;6220879;28;20681;-78
2020/12/09 06:53:33;;;;;;;8.03;6.13;;;;;;;4.20;86.13;102250.09;6221735;28;20277;-78
2020/12/09 06:56:36;;;;;;;8.17;5.40;;;;;;;4.33;85.40;102255.22;6221444;28;20276;-79
2020/12/09 06:59:39;;;;;;;6.13;5.07;;;;;;;4.30;85.64;102233.88;6201690;28;20225;-79
2020/12/09 07:02:45;;;;;;;6.63;5.70;;;;;;;4.29;85.80;102242.97;6221011;28;20198;-78
2020/12/09 07:05:48;;;;;;;12.27;5.80;;;;;;;4.26;86.15;102248.69;6218734;28;20202;-77
2020/12/09 07:08:51;;;;;;;4.90;4.50;;;;;;;4.37;85.09;102246.69;6205525;28;20232;-79
2020/12/09 07:11:54;;;;;;;5.57;5.17;;;;;;;4.47;85.19;102246.66;6220465;28;20198;-79
2020/12/09 07:14:58;;;;;;;7.33;5.03;;;;;;;4.35;85.21;102237.00;6196189;28;20200;-78
2020/12/09 07:18:04;;;;;;;6.63;5.23;;;;;;;4.43;85.30;102229.03;6206530;28;20203;-78
2020/12/09 07:21:09;;;;;;;7.53;4.93;;;;;;;4.47;84.50;102238.56;6212739;28;20204;-77
2020/12/09 07:24:14;;;;;;;9.00;5.10;;;;;;;4.37;85.38;102245.81;6203787;28;20235;-80
2020/12/09 07:27:18;;;;;;;5.87;4.60;;;;;;;4.45;84.66;102243.25;6208763;28;20250;-78
2020/12/09 07:30:22;;;;;;;7.27;4.70;;;;;;;4.57;84.54;102258.31;6206730;28;20228;-78
2020/12/09 07:33:32;;;;;;;6.97;4.73;;;;;;;4.28;85.58;102262.91;6211399;28;20291;-77
2020/12/09 07:36:49;;;;;;;5.33;4.70;;;;;;;4.19;86.32;102252.94;6212753;28;20209;-79
2020/12/09 07:39:53;;;;;;;5.30;4.80;;;;;;;4.11;87.10;102256.34;6201847;28;20214;-79
2020/12/09 07:42:59;;;;;;;4.60;4.33;;;;;;;4.15;86.08;102251.50;6218895;28;20222;-78
2020/12/09 07:46:04;;;;;;;7.07;4.83;;;;;;;4.36;85.72;102261.22;6221519;28;20243;-80
2020/12/09 07:49:12;;;;;;;4.60;4.23;;;;;;;4.10;85.34;102210.56;6207031;28;20244;-78
2020/12/09 07:52:23;;;;;;;5.27;4.80;;;;;;;4.34;86.12;102262.31;6214834;28;20197;-78
2020/12/09 07:55:27;;;;;;;6.97;4.30;;;;;;;4.42;84.92;102265.16;6216828;28;20210;-79
2020/12/09 07:58:30;;;;;;;5.93;4.70;;;;;;;4.38;86.04;102263.75;6198004;28;20285;-78
2020/12/09 08:01:36;;;;;;;5.57;4.97;;;;;;;4.42;84.84;102270.56;6193499;28;20262;-78
2020/12/09 08:04:40;;;;;;;4.53;4.13;;;;;;;4.21;86.35;102272.56;6218033;28;20198;-79
2020/12/09 08:07:58;;;;;;;4.77;4.33;;;;;;;4.36;84.62;102276.56;6211619;28;20311;-78
2020/12/09 08:11:07;;;;;;;5.80;4.57;;;;;;;4.39;84.57;102273.56;6201489;28;20567;-79
2020/12/09 08:14:11;;;;;;;4.53;4.23;;;;;;;4.22;85.85;102280.53;6212267;28;20712;-79
2020/12/09 08:17:26;;;;;;;5.67;4.60;;;;;;;4.32;84.37;102281.38;6219339;28;20215;-79
2020/12/09 08:20:31;;;;;;;4.70;4.07;;;;;;;4.46;84.21;102288.22;6205533;28;20202;-78
2020/12/09 08:23:41;;;;;;;4.40;4.00;;;;;;;4.32;84.94;102280.53;6209301;28;20207;-78
2020/12/09 08:26:45;;;;;;;4.53;4.23;;;;;;;4.25;85.49;102287.50;6217037;28;20282;-78
2020/12/09 08:29:49;;;;;;;5.03;3.87;;;;;;;4.27;85.35;102293.59;6217709;28;20200;-78
2020/12/09 08:32:58;;;;;;;4.87;4.33;;;;;;;4.43;84.46;102288.50;6200285;28;20204;-78
2020/12/09 08:36:08;;;;;;;5.00;4.60;;;;;;;4.32;83.87;102254.38;6211256;28;20316;-78
2020/12/09 08:39:11;;;;;;;6.47;4.30;;;;;;;4.55;84.15;102292.75;6213336;28;20199;-78
2020/12/09 08:42:19;;;;;;;4.67;4.27;;;;;;;4.57;82.87;102279.13;6208897;28;20198;-78
2020/12/09 08:45:23;;;;;;;6.07;4.70;;;;;;;4.43;83.87;102288.50;6215179;28;20298;-79
2020/12/09 08:48:26;;;;;;;5.03;4.53;;;;;;;4.24;85.44;102299.28;6210718;28;20241;-77
2020/12/09 08:51:33;;;;;;;5.40;4.70;;;;;;;4.20;85.72;102301.44;6216183;28;20210;-78
2020/12/09 08:54:37;;;;;;;4.67;4.27;;;;;;;4.44;83.88;102295.63;6212267;28;20258;-78
2020/12/09 08:57:40;;;;;;;5.80;4.33;;;;;;;4.42;84.41;102308.41;6209263;28;20622;-77
2020/12/09 09:00:44;;;;;;;4.53;4.13;;;;;;;4.40;84.26;102310.41;6214780;28;20206;-79
2020/12/09 09:03:53;;;;;;;7.27;4.70;;;;;;;4.42;84.20;102303.00;6216744;28;20204;-79
2020/12/09 09:06:57;;;;;;;4.67;4.27;;;;;;;4.40;84.83;102305.84;6200397;28;20203;-79
2020/12/09 09:10:01;;;;;;;6.77;4.43;;;;;;;4.45;83.16;102313.53;6216637;28;20498;-79
2020/12/09 09:13:05;;;;;;;5.57;4.63;;;;;;;4.41;82.85;102279.69;6206340;28;20230;-78
2020/12/09 09:16:10;;;;;;;5.40;4.93;;;;;;;4.47;83.19;102306.13;6214035;28;20256;-78
2020/12/09 09:19:13;;;;;;;5.17;4.70;;;;;;;4.42;84.24;102324.63;6217879;28;20200;-79
2020/12/09 09:22:18;;;;;;;5.93;4.73;;;;;;;4.46;83.59;102328.75;6212151;28;20281;-78
2020/12/09 09:25:22;;;;;;;5.30;4.80;;;;;;;4.38;84.72;102323.22;6209208;28;20213;-78
2020/12/09 09:28:26;;;;;;;5.23;4.73;;;;;;;4.54;83.41;102318.09;6199357;28;20235;-81
2020/12/09 09:31:29;;;;;;;5.50;5.00;;;;;;;4.40;84.25;102323.91;6209540;28;20213;-79
2020/12/09 09:34:33;;;;;;;7.83;4.73;;;;;;;4.40;83.70;102299.59;6215472;28;20257;-78
2020/12/09 09:37:37;;;;;;;5.67;4.40;;;;;;;4.44;84.20;102314.53;6217356;28;20234;-77
2020/12/09 09:40:41;;;;;;;5.27;4.73;;;;;;;4.52;83.35;102308.44;6215684;28;20558;-79
2020/12/09 09:43:45;;;;;;;5.17;4.67;;;;;;;4.54;83.19;102301.88;6216661;28;20208;-80
2020/12/09 09:46:48;;;;;;;4.90;4.53;;;;;;;4.67;82.92;102291.63;6201994;28;20558;-77
2020/12/09 09:49:52;;;;;;;5.83;5.10;;;;;;;4.72;82.42;102297.47;6216084;28;20328;-77
2020/12/09 09:52:55;;;;;;;5.53;4.97;;;;;;;4.37;83.81;102289.06;6209601;28;20202;-76
2020/12/09 09:55:58;;;;;;;4.63;4.43;;;;;;;4.41;84.64;102307.56;6214110;28;20480;-76
2020/12/09 09:59:05;;;;;;;9.73;4.90;;;;;;;4.65;83.49;102296.31;6216869;28;20210;-79
2020/12/09 10:02:10;;;;;;;6.63;4.97;;;;;;;4.84;82.01;102299.00;6219267;28;20190;-79
2020/12/09 10:05:13;;;;;;;8.73;4.90;;;;;;;4.63;81.65;102290.19;6217869;28;20249;-79
2020/12/09 10:08:17;;;;;;;5.23;4.73;;;;;;;4.59;82.85;102299.59;6221132;28;20396;-77
2020/12/09 10:11:20;;;;;;;6.27;5.50;;;;;;;4.56;83.19;102294.47;6217528;28;20570;-79
2020/12/09 10:14:24;;;;;;;5.33;4.83;;;;;;;4.61;82.55;102296.75;6217096;28;20208;-77
2020/12/09 10:17:27;;;;;;;6.13;4.87;;;;;;;4.58;83.10;102303.28;6214272;28;20336;-79
2020/12/09 10:20:30;;;;;;;7.03;5.53;;;;;;;4.74;82.09;102303.56;6218256;28;20195;-77
2020/12/09 10:23:34;;;;;;;7.53;5.03;;;;;;;4.69;82.24;102299.59;6219691;28;20644;-76
2020/12/09 10:26:39;;;;;;;5.53;5.03;;;;;;;4.72;82.47;102305.56;6218932;28;20325;-78
2020/12/09 10:29:43;;;;;;;5.57;4.97;;;;;;;4.77;81.92;102308.69;6221550;28;20315;-78
2020/12/09 10:32:47;;;;;;;4.77;4.37;;;;;;;4.81;81.65;102303.84;6220068;28;20615;-78
2020/12/09 10:35:52;;;;;;;5.93;5.33;;;;;;;4.73;82.43;102303.69;6220319;28;20200;-78
2020/12/09 10:38:56;;;;;;;7.33;5.47;;;;;;;4.67;82.22;102302.44;6217509;28;20552;-80
2020/12/09 10:41:59;;;;;;;6.30;4.93;;;;;;;4.26;83.36;102297.31;6220636;28;20283;-78
2020/12/09 10:45:03;;;;;;;5.53;5.07;;;;;;;4.72;81.87;102310.97;6220119;28;20279;-77
2020/12/09 10:48:11;;;;;;;7.10;5.20;;;;;;;4.77;82.26;102314.09;6216034;28;20260;-77
2020/12/09 10:51:15;;;;;;;7.77;5.20;;;;;;;4.73;81.47;102307.25;6216416;28;20207;-79
2020/12/09 10:54:19;;;;;;;6.17;5.03;;;;;;;4.56;82.11;102310.69;6218513;28;20196;-77
2020/12/09 10:57:22;;;;;;;5.50;5.10;;;;;;;4.74;82.23;102308.97;6217268;28;20275;-77
2020/12/09 11:00:26;;;;;;;8.83;5.73;;;;;;;4.60;83.49;102312.09;6211665;28;20206;-78
2020/12/09 11:03:37;;;;;;;5.17;4.77;;;;;;;4.70;82.15;102306.72;6203463;28;20196;-79
2020/12/09 11:06:42;;;;;;;5.30;4.77;;;;;;;4.62;83.74;102310.13;6220365;28;20308;-79
2020/12/09 11:09:46;;;;;;;5.17;4.67;;;;;;;4.60;83.21;102317.50;6216563;28;21116;-79
2020/12/09 11:12:51;;;;;;;8.03;5.00;;;;;;;4.37;83.13;102272.84;6217507;28;20203;-79
2020/12/09 11:15:54;;;;;;;6.63;4.53;;;;;;;4.69;82.42;102321.22;6219094;28;20198;-78
2020/12/09 11:18:57;;;;;;;5.60;5.10;;;;;;;4.64;83.13;102313.53;6218968;28;20245;-79
2020/12/09 11:22:00;;;;;;;5.50;5.00;;;;;;;4.68;83.59;102320.34;6217197;28;20282;-78
2020/12/09 11:25:06;;;;;;;5.20;4.80;;;;;;;4.68;83.33;102320.34;6219410;28;20211;-79
2020/12/09 11:28:13;;;;;;;5.90;5.33;;;;;;;4.74;82.78;102324.34;6219578;28;20248;-79
2020/12/09 11:31:26;;;;;;;9.57;5.23;;;;;;;4.64;84.07;102313.53;6217485;28;20488;-78
2020/12/09 11:34:29;;;;;;;6.27;4.77;;;;;;;4.80;83.10;102321.09;6217926;28;20638;-78
2020/12/09 11:37:33;;;;;;;5.33;4.33;;;;;;;4.76;83.67;102317.78;6217938;28;20204;-79
2020/12/09 11:40:38;;;;;;;4.63;4.33;;;;;;;4.80;83.49;102321.91;6213391;28;20347;-78
2020/12/09 11:43:44;;;;;;;6.10;5.03;;;;;;;4.64;83.82;102328.91;6217617;28;20207;-79
2020/12/09 11:46:48;;;;;;;8.00;5.00;;;;;;;4.55;85.35;102314.38;6210126;28;20203;-78
2020/12/09 11:49:53;;;;;;;5.33;4.83;;;;;;;4.70;83.57;102323.75;6209961;28;20238;-77
2020/12/09 11:52:56;;;;;;;4.90;4.50;;;;;;;4.63;84.10;102311.81;6215376;28;20208;-78
2020/12/09 11:56:00;;;;;;;5.87;5.30;;;;;;;4.53;83.90;102305.56;6216635;28;20279;-77
2020/12/09 11:59:04;;;;;;;5.37;4.67;;;;;;;4.69;83.44;102315.81;6215202;28;20217;-78
2020/12/09 12:02:08;;;;;;;5.57;4.70;;;;;;;4.76;82.67;102311.53;6216214;28;20279;-77
2020/12/09 12:05:11;;;;;;;6.67;4.77;;;;;;;4.49;83.13;102270.88;6218523;28;20205;-76
2020/12/09 12:08:17;;;;;;;5.53;4.97;;;;;;;4.67;83.17;102307.84;6216642;28;20767;-76
2020/12/09 12:11:24;;;;;;;6.10;5.13;;;;;;;4.81;82.16;102304.69;6216512;28;20551;-77
2020/12/09 12:14:27;;;;;;;5.70;5.20;;;;;;;4.75;83.31;102309.84;6193298;28;20649;-79
2020/12/09 12:17:30;;;;;;;5.43;4.93;;;;;;;4.46;84.92;102307.13;6213207;28;20199;-78
2020/12/09 12:20:33;;;;;;;7.87;5.20;;;;;;;4.37;86.02;102310.69;6206673;28;20212;-78
2020/12/09 12:23:36;;;;;;;5.10;4.60;;;;;;;4.69;85.04;102316.66;6208245;28;20208;-76
2020/12/09 12:26:41;;;;;;;7.17;5.40;;;;;;;4.70;85.02;102304.84;6206358;28;20231;-78
2020/12/09 12:29:44;;;;;;;5.70;5.20;;;;;;;4.61;85.30;102319.22;6216396;28;20295;-78
2020/12/09 12:32:47;;;;;;;7.17;4.70;;;;;;;4.74;83.91;102308.97;6209086;28;20209;-78
2020/12/09 12:35:51;;;;;;;6.10;5.30;;;;;;;4.24;86.36;102285.78;6208246;28;20249;-78
2020/12/09 12:38:57;;;;;;;5.27;4.73;;;;;;;3.90;86.12;102219.66;6211285;28;20203;-78
2020/12/09 12:42:04;;;;;;;8.37;5.23;;;;;;;4.67;85.27;102315.09;6219772;28;20227;-77
2020/12/09 12:45:09;;;;;;;12.63;5.17;;;;;;;4.71;84.31;102313.81;6213071;28;20211;-77
2020/12/09 12:48:15;;;;;;;12.53;5.83;;;;;;;4.72;84.26;102321.81;6216308;28;20225;-77
2020/12/09 12:51:20;;;;;;;5.80;5.40;;;;;;;4.64;82.75;102318.94;6187395;28;20196;-77
2020/12/09 12:54:23;;;;;;;7.10;6.30;;;;;;;4.61;83.89;102324.63;6202452;28;20557;-77
2020/12/09 12:57:27;;;;;;;7.17;6.03;;;;;;;4.72;82.80;102326.34;6216770;28;20252;-78
2020/12/09 13:00:31;;;;;;;9.00;6.20;;;;;;;4.82;82.67;102322.63;6213278;28;20299;-77
2020/12/09 13:03:46;;;;;;;7.60;6.27;;;;;;;4.55;83.75;102330.59;6202483;28;20208;-76
2020/12/09 13:06:49;;;;;;;8.73;6.23;;;;;;;4.60;83.18;102322.91;6207734;28;20200;-77
2020/12/09 13:09:53;;;;;;;10.13;6.33;;;;;;;4.50;84.36;102327.47;6211519;28;20214;-76
2020/12/09 13:12:57;;;;;;;8.10;6.57;;;;;;;4.56;84.52;102329.63;6208306;28;20684;-76
2020/12/09 13:16:02;;;;;;;7.80;7.00;;;;;;;4.69;84.03;102327.50;6206454;28;20916;-75
2020/12/09 13:19:06;;;;;;;9.70;6.63;;;;;;;4.58;83.47;102335.72;6214067;28;20200;-76
2020/12/09 13:22:09;;;;;;;13.53;8.07;;;;;;;4.49;84.86;102320.38;6214873;28;20199;-76
2020/12/09 13:25:14;;;;;;;14.43;8.17;;;;;;;4.29;85.97;102324.03;6210156;28;20636;-77
2020/12/09 13:28:18;;;;;;;11.63;7.57;;;;;;;4.49;85.22;102335.72;6210086;28;20401;-76
2020/12/09 13:31:21;;;;;;;10.43;8.23;;;;;;;4.49;84.79;102325.78;6206086;28;20639;-76
2020/12/09 13:34:25;;;;;;;9.10;7.57;;;;;;;4.54;84.85;102338.88;6212893;28;20202;-77
2020/12/09 13:37:29;;;;;;;9.93;7.50;;;;;;;4.41;85.50;102333.75;6219988;28;20287;-75
2020/12/09 13:40:32;;;;;;;15.43;8.03;;;;;;;4.54;84.72;102334.31;6220411;28;20345;-75
2020/12/09 13:43:36;;;;;;;15.33;8.23;;;;;;;4.42;85.62;102340.84;6216350;28;20194;-76
2020/12/09 13:46:39;;;;;;;13.03;8.30;;;;;;;4.44;85.81;102328.06;6219581;28;20203;-77
2020/12/09 13:49:43;;;;;;;11.87;8.50;;;;;;;4.54;85.34;102328.91;6218148;28;20232;-76
2020/12/09 13:52:46;;;;;;;9.20;7.70;;;;;;;4.60;85.12;102322.91;6220320;28;20232;-76
2020/12/09 13:55:50;;;;;;;12.87;8.03;;;;;;;4.67;85.13;102323.22;6220958;28;20199;-75
2020/12/09 13:58:54;;;;;;;14.33;8.77;;;;;;;4.41;86.84;102323.78;6219670;28;20619;-76
2020/12/09 14:01:57;;;;;;;15.40;8.47;;;;;;;4.44;85.98;102318.06;6220121;28;20193;-76
2020/12/09 14:05:01;;;;;;;13.63;8.80;;;;;;;4.47;85.68;102308.84;6221190;28;20205;-76
2020/12/09 14:08:09;;;;;;;16.80;9.10;;;;;;;4.31;86.40;102322.06;6217723;28;20578;-76
2020/12/09 14:11:12;;;;;;;18.53;9.13;;;;;;;4.23;87.27;102319.22;6217750;28;20254;-74
2020/12/09 14:14:16;;;;;;;10.63;8.73;;;;;;;4.36;85.97;102309.00;6217701;28;21096;-79
2020/12/09 14:17:21;;;;;;;15.63;9.40;;;;;;;4.36;85.91;102309.00;6212582;28;20238;-77
2020/12/09 14:20:25;;;;;;;17.87;9.13;;;;;;;4.35;85.38;102318.06;6215386;28;20210;-75
2020/12/09 14:23:28;;;;;;;14.13;8.50;;;;;;;4.27;85.47;102313.38;6209269;28;20201;-76
2020/12/09 14:26:31;;;;;;;16.23;8.33;;;;;;;4.29;85.49;102324.03;6214725;28;21540;-76